Monday, April 24, 2017, 10:49 PM EDT
Back to Local

KMPO, Mt Pocono Pocono Mountains

Location: Pocono Summit, PA, United States Lat: 41.133
Local Time: 10:49 PM EDT ( 2:49 GMT) Lon: -75.383
Time Zone: US/Eastern Elev: 1915 ft

Show me the last for .
Show Coded

Time T Td Feel RH Dir Speed Gust Alt SLP Vis Weather Sky Remarks
2017-04-24 21:53 51 35 - 54 110° 9 - 30.10 30.11 10 -RA BKN080 OVC100 1-hr Precip Total: Trace
2017-04-24 20:53 52 34 - 50 110° 9 - 30.10 30.11 10 OVC090 1-hr Precip Total: Trace
2017-04-24 19:53 54 32 - 43 110° 8 - 30.10 30.11 10 -RA OVC070 1-hr Precip Total: Trace
6-hr Precip Total (8pm): 0.00"
6-hr Min Temp (8pm): 54.0°F
6-hr Max Temp (8pm): 59.0°F
2017-04-24 18:53 56 33 - 41 100° 10 - 30.10 30.12 10 CLR None
2017-04-24 17:53 57 30 - 35 130° 10 - 30.10 30.12 10 OVC080 None
2017-04-24 16:53 58 35 - 42 120° 10 - 30.11 30.13 10 OVC090 None
2017-04-24 15:53 58 40 - 51 120° 10 - 30.12 30.14 10 OVC095 None
2017-04-24 14:53 58 36 - 43 110° 10 - 30.13 30.16 10 OVC095 None
2017-04-24 13:53 58 37 - 45 90° 8 - 30.13 30.15 10 OVC100 6-hr Min Temp (2pm): 46.9°F
6-hr Max Temp (2pm): 57.9°F
2017-04-24 12:53 58 35 - 42 110° 8 - 30.14 30.15 10 OVC110 None
2017-04-24 11:53 57 36 - 45 90° 9 - 30.14 30.15 10 OVC110 None
2017-04-24 10:53 56 36 - 46 100° 7 - 30.14 30.16 10 SCT120 None
2017-04-24 09:53 54 38 - 54 100° 6 - 30.14 30.15 10 CLR None
2017-04-24 08:53 51 41 - 68 - Calm - 30.14 30.15 10 CLR None
2017-04-24 07:53 47 43 - 86 - Calm - 30.12 30.13 10 CLR 6-hr Min Temp (8am): 33.1°F
6-hr Max Temp (8am): 46.9°F
2017-04-24 06:53 38 36 - 92 - Calm - 30.12 30.14 10 CLR None
2017-04-24 05:53 37 36 33 95 350° 5 - 30.09 30.11 10 CLR None
2017-04-24 04:53 39 36 35 88 340° 6 - 30.09 30.10 10 CLR None
2017-04-24 03:53 36 35 33 96 330° 3 - 30.09 30.10 10 CLR None
2017-04-24 02:53 36 35 31 96 300° 6 - 30.08 30.09 10 CLR None
2017-04-24 01:53 37 35 34 92 300° 3 - 30.09 30.10 10 CLR 6-hr Min Temp (2am): 36.0°F
6-hr Max Temp (2am): 53.1°F
2017-04-24 00:53 39 36 - 88 - Calm - 30.10 30.11 10 CLR 24-hr Min Temp (1am): 33.1°F
24-hr Max Temp (1am): 64.0°F
2017-04-23 23:53 41 36 - 82 - Calm - 30.10 30.12 10 CLR None
2017-04-23 22:53 43 35 - 73 - Calm - 30.10 30.11 10 CLR None

Support USWX by starting your Amazon purchase here.